createdAt,value
2017-07-26T05:31:32.541Z,15.51
2017-07-26T05:31:57.953Z,15.51
2017-07-26T05:32:23.379Z,15.49
2017-07-26T05:32:48.862Z,15.51
2017-07-26T05:33:14.297Z,15.46
2017-07-26T05:33:39.764Z,15.51
2017-07-26T05:34:05.221Z,15.51
2017-07-26T05:34:30.670Z,15.58
2017-07-26T05:34:56.169Z,15.49
2017-07-26T05:35:21.650Z,15.44
2017-07-26T05:35:47.084Z,15.51
2017-07-26T05:36:12.599Z,15.61
2017-07-26T05:36:38.082Z,15.62
2017-07-26T05:37:03.565Z,15.46
2017-07-26T05:37:29.036Z,15.58
2017-07-26T05:37:54.460Z,15.51
2017-07-26T05:38:19.933Z,15.59
2017-07-26T05:38:45.393Z,15.52
2017-07-26T05:39:10.872Z,15.61
2017-07-26T05:39:36.290Z,15.54
2017-07-26T05:40:01.727Z,15.67
2017-07-26T05:40:27.155Z,15.59
2017-07-26T05:40:52.633Z,15.65
2017-07-26T05:41:18.062Z,15.61
2017-07-26T05:41:43.574Z,15.67
2017-07-26T05:42:09.069Z,15.65
2017-07-26T05:42:34.455Z,15.68
2017-07-26T05:42:59.904Z,15.62
2017-07-26T05:43:25.381Z,15.58
2017-07-26T05:43:50.845Z,15.59
2017-07-26T05:44:16.258Z,15.68
2017-07-26T05:44:41.736Z,15.67
2017-07-26T05:45:07.193Z,15.77
2017-07-26T05:45:32.629Z,15.77
2017-07-26T05:45:58.099Z,15.68
2017-07-26T05:46:23.526Z,15.77
2017-07-26T05:46:49.006Z,15.73
2017-07-26T05:47:14.426Z,15.77
2017-07-26T05:47:39.880Z,15.88
2017-07-26T05:48:05.451Z,15.79
2017-07-26T05:48:30.846Z,15.9
2017-07-26T05:48:56.340Z,15.83
2017-07-26T05:49:21.772Z,15.92
2017-07-26T05:49:47.272Z,15.86
2017-07-26T05:50:12.739Z,15.97
2017-07-26T05:50:38.215Z,16.05
2017-07-26T05:51:03.664Z,15.91
2017-07-26T05:51:29.118Z,15.97
2017-07-26T05:51:54.509Z,16.08
2017-07-26T05:52:19.971Z,16.02
2017-07-26T05:52:45.442Z,16
2017-07-26T05:53:10.931Z,16.04
2017-07-26T05:53:36.434Z,16
2017-07-26T05:54:01.852Z,16.1
2017-07-26T05:54:27.334Z,16
2017-07-26T05:54:52.822Z,16.1
2017-07-26T05:55:18.252Z,16.09
2017-07-26T05:55:43.676Z,16.12
2017-07-26T05:56:09.156Z,16.13
2017-07-26T05:56:34.693Z,16.09
2017-07-26T05:57:00.167Z,16.12
2017-07-26T05:57:25.634Z,16.15
2017-07-26T05:57:51.087Z,16.17
2017-07-26T05:58:16.595Z,16.17
2017-07-26T05:58:42.100Z,16.16
2017-07-26T05:59:07.472Z,16.16
2017-07-26T05:59:32.966Z,16.13
2017-07-26T05:59:58.426Z,16.29
2017-07-26T06:00:23.856Z,16.28
2017-07-26T06:00:49.341Z,16.26
2017-07-26T06:01:14.789Z,16.32
2017-07-26T06:01:40.268Z,16.28
2017-07-26T06:02:05.741Z,16.36
2017-07-26T06:02:31.202Z,16.36
2017-07-26T06:02:56.707Z,16.41
2017-07-26T06:03:22.172Z,16.41
2017-07-26T06:03:47.629Z,16.39
2017-07-26T06:04:13.107Z,16.39
2017-07-26T06:04:38.562Z,16.38
2017-07-26T06:05:04.006Z,16.46
2017-07-26T06:05:29.495Z,16.57
2017-07-26T06:06:17.830Z,16.6
2017-07-26T06:06:43.355Z,16.58
2017-07-26T06:07:08.799Z,16.65
2017-07-26T06:07:34.283Z,16.71
2017-07-26T06:07:59.790Z,16.68
2017-07-26T06:08:25.215Z,16.66
2017-07-26T06:08:50.625Z,16.66
2017-07-26T06:09:16.082Z,16.6
2017-07-26T06:09:41.549Z,16.64
2017-07-26T06:10:06.993Z,16.71
2017-07-26T06:10:32.446Z,16.65
2017-07-26T06:10:57.925Z,16.81
2017-07-26T06:11:23.352Z,16.71
2017-07-26T06:11:48.808Z,16.81
2017-07-26T06:12:14.245Z,16.76
2017-07-26T06:12:39.721Z,16.76
2017-07-26T06:13:05.163Z,16.78
2017-07-26T06:13:30.567Z,16.74
2017-07-26T06:13:56.065Z,16.86
2017-07-26T06:14:21.447Z,16.83
2017-07-26T06:14:46.923Z,16.81
2017-07-26T06:15:12.363Z,16.83
2017-07-26T06:15:37.805Z,16.79
2017-07-26T06:16:03.301Z,16.91
2017-07-26T06:16:28.752Z,16.97
2017-07-26T06:16:54.190Z,16.97
2017-07-26T06:17:19.599Z,16.94
2017-07-26T06:17:45.067Z,16.97
2017-07-26T06:18:10.517Z,16.97
2017-07-26T06:18:35.966Z,17.01
2017-07-26T06:19:01.453Z,17.06
2017-07-26T06:19:26.912Z,17.02
2017-07-26T06:19:52.354Z,17.04
2017-07-26T06:20:17.798Z,17.12
2017-07-26T06:20:43.250Z,17.14
2017-07-26T06:21:08.718Z,17.15
2017-07-26T06:21:34.211Z,17.14
2017-07-26T06:21:59.672Z,17.2
2017-07-26T06:22:25.059Z,17.16
2017-07-26T06:22:50.506Z,17.16
2017-07-26T06:23:15.937Z,17.22
2017-07-26T06:23:41.409Z,17.19
2017-07-26T06:24:06.875Z,17.19
2017-07-26T06:24:32.352Z,17.22
2017-07-26T06:24:57.819Z,17.2
2017-07-26T06:25:23.212Z,17.22
2017-07-26T06:25:48.661Z,17.34
2017-07-26T06:26:14.147Z,17.31
2017-07-26T06:26:39.596Z,17.26
2017-07-26T06:27:05.065Z,17.3
2017-07-26T06:27:30.541Z,17.27
2017-07-26T06:27:55.986Z,17.26
2017-07-26T06:28:21.466Z,17.22
2017-07-26T06:28:46.994Z,17.26
2017-07-26T06:29:12.442Z,17.22
2017-07-26T06:29:37.911Z,17.22
2017-07-26T06:30:03.443Z,17.2
2017-07-26T06:30:28.939Z,17.19
2017-07-26T06:30:54.392Z,17.26
2017-07-26T06:31:19.839Z,17.24
2017-07-26T06:31:45.315Z,17.22
2017-07-26T06:32:10.814Z,17.31
2017-07-26T06:32:36.263Z,17.34
2017-07-26T06:33:01.821Z,17.36
2017-07-26T06:33:27.322Z,17.33
2017-07-26T06:33:52.831Z,17.33
2017-07-26T06:34:18.298Z,17.34
2017-07-26T06:34:43.796Z,17.31
2017-07-26T06:35:09.248Z,17.3
2017-07-26T06:35:34.682Z,17.29
2017-07-26T06:36:00.141Z,17.34
2017-07-26T06:36:25.608Z,17.36
2017-07-26T06:36:51.110Z,17.33
2017-07-26T06:37:16.598Z,17.38
2017-07-26T06:37:42.072Z,17.33
2017-07-26T06:38:07.527Z,17.34
2017-07-26T06:38:32.997Z,17.31
2017-07-26T06:38:58.472Z,17.38
2017-07-26T06:39:23.937Z,17.44
2017-07-26T06:40:12.256Z,17.45
2017-07-26T06:40:37.768Z,17.45
2017-07-26T06:41:03.237Z,17.41
2017-07-26T06:41:28.691Z,17.44
2017-07-26T06:41:54.137Z,17.41
2017-07-26T06:42:19.611Z,17.38
2017-07-26T06:42:45.081Z,17.38
2017-07-26T06:43:10.529Z,17.42
2017-07-26T06:43:36.038Z,17.31
2017-07-26T06:44:01.470Z,17.36
2017-07-26T06:44:26.976Z,17.34
2017-07-26T06:44:52.404Z,17.36
2017-07-26T06:45:17.842Z,17.34
2017-07-26T06:45:43.312Z,17.34
2017-07-26T06:46:08.766Z,17.31
2017-07-26T06:46:34.243Z,17.38
2017-07-26T06:46:59.732Z,17.42
2017-07-26T06:47:25.136Z,17.34
2017-07-26T06:47:50.650Z,17.31
2017-07-26T06:48:16.180Z,17.34
2017-07-26T06:48:41.655Z,17.38
2017-07-26T06:49:07.125Z,17.29
2017-07-26T06:49:32.617Z,17.3
2017-07-26T06:49:58.074Z,17.24
2017-07-26T06:50:23.524Z,17.2
2017-07-26T06:50:49.009Z,17.22
2017-07-26T06:51:14.510Z,17.2
2017-07-26T06:51:39.993Z,17.2
2017-07-26T06:52:05.468Z,17.23
2017-07-26T06:52:30.975Z,17.11
2017-07-26T06:52:56.487Z,17.14
2017-07-26T06:53:21.945Z,17.14
2017-07-26T06:53:47.373Z,17.06
2017-07-26T06:54:12.869Z,17.12
2017-07-26T06:54:38.332Z,17.11
2017-07-26T06:55:03.800Z,17.06
2017-07-26T06:55:29.275Z,17.09
2017-07-26T06:55:54.841Z,17.11
2017-07-26T06:56:20.335Z,17.11
2017-07-26T06:56:45.815Z,17.08
2017-07-26T06:57:11.276Z,17.12
2017-07-26T06:57:36.715Z,17.08
2017-07-26T06:58:02.200Z,17.12
2017-07-26T06:58:27.723Z,17.15
2017-07-26T06:58:53.185Z,17.26
2017-07-26T06:59:18.650Z,17.26
2017-07-26T06:59:44.160Z,17.36
2017-07-26T07:00:09.657Z,17.3
2017-07-26T07:00:35.115Z,17.36
2017-07-26T07:01:00.620Z,17.38
2017-07-26T07:01:26.105Z,17.41
2017-07-26T07:02:29.745Z,17.42
2017-07-26T07:02:55.215Z,17.49
2017-07-26T07:03:20.684Z,17.48
2017-07-26T07:03:46.162Z,17.56
2017-07-26T07:04:11.658Z,17.56
2017-07-26T07:04:37.131Z,17.52
2017-07-26T07:05:02.589Z,17.56
2017-07-26T07:05:28.080Z,17.7
2017-07-26T07:05:53.563Z,17.65
2017-07-26T07:06:19.051Z,17.72
2017-07-26T07:06:44.595Z,17.68
2017-07-26T07:07:10.033Z,17.74
2017-07-26T07:07:35.530Z,17.71
2017-07-26T07:08:01.021Z,17.7
2017-07-26T07:08:26.541Z,17.72
2017-07-26T07:08:52.002Z,17.67
2017-07-26T07:09:17.442Z,17.7
2017-07-26T07:09:42.886Z,17.72
2017-07-26T07:10:08.348Z,17.72
2017-07-26T07:10:33.889Z,17.76
2017-07-26T07:10:59.376Z,17.8
2017-07-26T07:11:24.802Z,17.78
2017-07-26T07:11:50.343Z,17.82
2017-07-26T07:12:15.772Z,17.8
2017-07-26T07:12:41.309Z,17.86
2017-07-26T07:13:06.803Z,17.9
2017-07-26T07:13:32.348Z,17.97
2017-07-26T07:13:57.807Z,17.98
2017-07-26T07:14:23.318Z,18.05
2017-07-26T07:14:48.779Z,18.07
2017-07-26T07:15:14.281Z,18.08
2017-07-26T07:15:39.776Z,18.05
2017-07-26T07:16:05.234Z,18.1
2017-07-26T07:16:30.701Z,18.16
2017-07-26T07:16:56.186Z,18.07
2017-07-26T07:17:21.706Z,18.22
2017-07-26T07:17:47.212Z,18.18
2017-07-26T07:18:12.704Z,18.35
2017-07-26T07:18:38.196Z,18.31
2017-07-26T07:19:03.643Z,18.31
2017-07-26T07:19:29.130Z,18.31
2017-07-26T07:19:54.568Z,18.38
2017-07-26T07:20:20.043Z,18.47
2017-07-26T07:20:45.506Z,18.45
2017-07-26T07:21:49.058Z,18.52
2017-07-26T07:22:14.533Z,18.58
2017-07-26T07:22:39.976Z,18.66
2017-07-26T07:23:05.434Z,18.7
2017-07-26T07:23:30.905Z,18.73
2017-07-26T07:23:56.412Z,18.77
2017-07-26T07:24:21.872Z,18.83
2017-07-26T07:24:47.326Z,18.78
2017-07-26T07:25:12.820Z,18.9
2017-07-26T07:25:38.272Z,18.98
2017-07-26T07:26:03.775Z,18.96
2017-07-26T07:26:29.226Z,18.93
2017-07-26T07:26:54.731Z,19.07
2017-07-26T07:27:20.214Z,18.98
2017-07-26T07:27:45.694Z,19.07
2017-07-26T07:28:11.152Z,18.99
2017-07-26T07:28:36.611Z,19.11
2017-07-26T07:29:02.111Z,19.08
2017-07-26T07:29:27.587Z,19.07
2017-07-26T07:29:53.045Z,19.07
2017-07-26T07:30:18.534Z,19.02
2017-07-26T07:30:44.011Z,19.09
2017-07-26T07:31:09.527Z,19.15
2017-07-26T07:31:35.033Z,19.14
2017-07-26T07:32:00.467Z,19.15
2017-07-26T07:32:25.950Z,19.14
2017-07-26T07:32:51.400Z,18.99
2017-07-26T07:33:16.929Z,19.12
2017-07-26T07:33:42.358Z,19.08
2017-07-26T07:34:07.813Z,19.12
2017-07-26T07:34:33.315Z,19.11
2017-07-26T07:34:58.814Z,19.07
2017-07-26T07:35:24.309Z,19.11
2017-07-26T07:35:49.735Z,19.09
2017-07-26T07:36:15.252Z,19.12
2017-07-26T07:36:40.777Z,19.14
2017-07-26T07:37:06.237Z,19.21
2017-07-26T07:37:31.732Z,19.22
2017-07-26T07:37:57.214Z,19.22
2017-07-26T07:38:22.676Z,19.21
2017-07-26T07:38:48.176Z,19.16
2017-07-26T07:39:13.672Z,19.16
2017-07-26T07:39:39.172Z,19.18
2017-07-26T07:40:04.685Z,19.18
2017-07-26T07:40:30.169Z,19.3
2017-07-26T07:40:55.669Z,19.3
2017-07-26T07:41:21.216Z,19.3
2017-07-26T07:41:46.688Z,19.4
2017-07-26T07:42:12.177Z,19.37
2017-07-26T07:42:37.589Z,19.47
2017-07-26T07:43:03.085Z,19.52
2017-07-26T07:43:28.596Z,19.49
2017-07-26T07:43:54.035Z,19.54
2017-07-26T07:44:19.549Z,19.62
2017-07-26T07:44:45.062Z,19.58
2017-07-26T07:45:10.553Z,19.51
2017-07-26T07:45:36.039Z,19.52
2017-07-26T07:46:01.544Z,19.49
2017-07-26T07:46:27.000Z,19.47
2017-07-26T07:46:52.449Z,19.47
2017-07-26T07:47:17.936Z,19.45
2017-07-26T07:47:43.429Z,19.44
2017-07-26T07:48:08.890Z,19.44
2017-07-26T07:48:34.396Z,19.37
2017-07-26T07:48:59.903Z,19.47
2017-07-26T07:49:25.364Z,19.45
2017-07-26T07:49:50.856Z,19.45
2017-07-26T07:50:16.329Z,19.44
2017-07-26T07:50:41.858Z,19.51
2017-07-26T07:51:07.356Z,19.48
2017-07-26T07:51:32.892Z,19.52
2017-07-26T07:51:58.361Z,19.49
2017-07-26T07:52:23.814Z,19.55
2017-07-26T07:52:49.328Z,19.55
2017-07-26T07:53:14.797Z,19.62
2017-07-26T07:53:40.286Z,19.55
2017-07-26T07:54:05.761Z,19.63
2017-07-26T07:54:31.291Z,19.62
2017-07-26T07:54:56.720Z,19.63
2017-07-26T07:55:22.224Z,19.66
2017-07-26T07:55:47.671Z,19.63
2017-07-26T07:56:13.165Z,19.63
2017-07-26T07:56:38.651Z,19.66
2017-07-26T07:57:04.166Z,19.59
2017-07-26T07:57:29.643Z,19.58
2017-07-26T07:57:55.111Z,19.63
2017-07-26T07:58:20.589Z,19.63
2017-07-26T07:58:46.114Z,19.64
2017-07-26T07:59:11.593Z,19.59
2017-07-26T07:59:37.124Z,19.63
2017-07-26T08:00:02.636Z,19.59
2017-07-26T08:00:28.139Z,19.67
2017-07-26T08:00:53.664Z,19.71
2017-07-26T08:01:19.177Z,19.71
2017-07-26T08:01:44.672Z,19.79
2017-07-26T08:02:10.178Z,19.71
2017-07-26T08:02:35.623Z,19.84
2017-07-26T08:03:01.154Z,19.84
2017-07-26T08:03:26.604Z,19.79
2017-07-26T08:03:52.081Z,19.76
2017-07-26T08:04:17.593Z,19.82
2017-07-26T08:04:43.095Z,19.89
2017-07-26T08:05:08.560Z,19.81
2017-07-26T08:05:34.063Z,19.88
2017-07-26T08:05:59.523Z,19.85
2017-07-26T08:06:25.010Z,19.84
2017-07-26T08:06:50.509Z,19.85
2017-07-26T08:07:15.984Z,19.86
2017-07-26T08:07:41.481Z,19.86
2017-07-26T08:08:06.967Z,19.89
2017-07-26T08:08:32.466Z,19.85
2017-07-26T08:08:57.963Z,19.92
2017-07-26T08:09:23.503Z,19.85
2017-07-26T08:09:49.005Z,19.91
2017-07-26T08:10:14.480Z,19.91
2017-07-26T08:10:39.964Z,19.95
2017-07-26T08:11:05.432Z,19.95
2017-07-26T08:11:30.911Z,19.99
2017-07-26T08:11:56.387Z,20.03
2017-07-26T08:12:21.943Z,20.09
2017-07-26T08:12:47.434Z,20.04
2017-07-26T08:13:12.924Z,20.14
2017-07-26T08:13:38.427Z,20.11
2017-07-26T08:14:03.894Z,20.21
2017-07-26T08:14:29.356Z,20.18
2017-07-26T08:14:54.965Z,20.14
2017-07-26T08:15:20.449Z,20.19
2017-07-26T08:15:45.914Z,20.06
2017-07-26T08:16:11.403Z,20.09
2017-07-26T08:16:36.873Z,20.1
2017-07-26T08:17:02.411Z,19.95
2017-07-26T08:17:27.907Z,20.04
2017-07-26T08:17:53.375Z,20.06
2017-07-26T08:18:18.852Z,19.95
2017-07-26T08:18:44.333Z,19.96
2017-07-26T08:19:09.823Z,19.96
2017-07-26T08:19:35.329Z,19.95
2017-07-26T08:20:00.803Z,19.92
2017-07-26T08:20:26.266Z,19.91
2017-07-26T08:20:51.791Z,19.86
2017-07-26T08:21:17.275Z,19.79
2017-07-26T08:21:42.730Z,19.77
2017-07-26T08:22:08.229Z,19.84
2017-07-26T08:22:33.745Z,19.79
2017-07-26T08:22:59.218Z,19.84
2017-07-26T08:23:24.684Z,19.81
2017-07-26T08:23:50.145Z,19.79
2017-07-26T08:24:15.592Z,19.85
2017-07-26T08:24:41.038Z,19.79
2017-07-26T08:25:06.541Z,19.89
2017-07-26T08:26:15.234Z,19.91
2017-07-26T08:26:40.743Z,19.94
2017-07-26T08:27:06.185Z,19.96
2017-07-26T08:27:31.685Z,19.99
2017-07-26T08:27:57.171Z,19.96
2017-07-26T08:28:22.635Z,19.99
2017-07-26T08:28:48.090Z,20.07
2017-07-26T08:29:13.581Z,20.06
2017-07-26T08:29:39.043Z,20.1
2017-07-26T08:30:04.492Z,20.11
2017-07-26T08:30:52.798Z,20.07
2017-07-26T08:31:18.254Z,20.07
2017-07-26T08:31:43.734Z,20.07
2017-07-26T08:32:09.202Z,20.11
2017-07-26T08:32:34.698Z,20.07
2017-07-26T08:33:00.175Z,20.09
2017-07-26T08:33:25.676Z,20.13
2017-07-26T08:33:51.148Z,20.11
2017-07-26T08:34:16.651Z,20.14
2017-07-26T08:34:42.125Z,20.19
2017-07-26T08:35:07.657Z,20.18
2017-07-26T08:35:33.126Z,20.21
2017-07-26T08:35:58.643Z,20.11
2017-07-26T08:36:24.111Z,20.26
2017-07-26T08:36:49.601Z,20.28
2017-07-26T08:37:15.092Z,20.26
2017-07-26T08:37:40.571Z,20.39
2017-07-26T08:38:06.069Z,20.34
2017-07-26T08:38:31.561Z,20.32
2017-07-26T08:38:57.061Z,20.26
2017-07-26T08:39:22.510Z,20.37
2017-07-26T08:39:48.025Z,20.39
2017-07-26T08:40:13.476Z,20.37
2017-07-26T08:40:38.981Z,20.39
2017-07-26T08:41:04.446Z,20.36
2017-07-26T08:41:29.916Z,20.47
2017-07-26T08:41:55.405Z,20.5
2017-07-26T08:42:20.879Z,20.5
2017-07-26T08:42:46.347Z,20.47
2017-07-26T08:43:11.831Z,20.6
2017-07-26T08:43:37.294Z,20.6
2017-07-26T08:44:02.775Z,20.58
2017-07-26T08:44:28.245Z,20.62
2017-07-26T08:44:53.736Z,20.66
2017-07-26T08:45:19.220Z,20.7
2017-07-26T08:45:44.675Z,20.7
2017-07-26T08:46:10.192Z,20.67
2017-07-26T08:46:35.651Z,20.72
2017-07-26T08:47:01.106Z,20.7
2017-07-26T08:47:26.586Z,20.69
2017-07-26T08:47:52.055Z,20.66
2017-07-26T08:48:17.530Z,20.66
2017-07-26T08:48:43.016Z,20.66
2017-07-26T08:49:08.496Z,20.66
2017-07-26T08:49:33.973Z,20.72
2017-07-26T08:49:59.473Z,20.72
2017-07-26T08:50:24.940Z,20.72
2017-07-26T08:50:50.419Z,20.78
2017-07-26T08:51:15.919Z,20.77
2017-07-26T08:51:41.436Z,20.7
2017-07-26T08:52:06.852Z,20.74
2017-07-26T08:52:32.297Z,20.78
2017-07-26T08:52:57.774Z,20.67
2017-07-26T08:53:23.244Z,20.69
2017-07-26T08:53:48.740Z,20.7
2017-07-26T08:54:14.210Z,20.7
2017-07-26T08:54:39.703Z,20.72
2017-07-26T08:55:05.178Z,20.77
2017-07-26T08:55:30.667Z,20.77
2017-07-26T08:55:56.146Z,20.78
2017-07-26T08:56:21.617Z,20.7
2017-07-26T08:56:47.067Z,20.8
2017-07-26T08:57:12.570Z,20.8
2017-07-26T08:57:38.041Z,20.74
2017-07-26T08:58:03.537Z,20.8
2017-07-26T08:58:28.966Z,20.75
2017-07-26T08:58:54.428Z,20.92
2017-07-26T08:59:19.896Z,20.82
2017-07-26T08:59:45.391Z,20.88
2017-07-26T09:00:10.845Z,20.78
2017-07-26T09:00:36.319Z,20.82
2017-07-26T09:01:01.779Z,20.81
2017-07-26T09:01:27.273Z,20.8
2017-07-26T09:01:52.767Z,20.84
2017-07-26T09:02:18.289Z,20.72
2017-07-26T09:02:43.809Z,20.72
2017-07-26T09:03:09.277Z,20.69
2017-07-26T09:03:34.746Z,20.67
2017-07-26T09:04:00.239Z,20.7
2017-07-26T09:04:25.749Z,20.63
2017-07-26T09:04:51.215Z,20.69
2017-07-26T09:05:16.712Z,20.72
2017-07-26T09:05:42.224Z,20.69
2017-07-26T09:06:07.719Z,20.75
2017-07-26T09:06:33.214Z,20.7
2017-07-26T09:06:58.660Z,20.7
2017-07-26T09:07:24.122Z,20.81
2017-07-26T09:07:49.630Z,20.78
2017-07-26T09:08:15.102Z,20.69
2017-07-26T09:08:40.616Z,20.75
2017-07-26T09:09:06.106Z,20.75
2017-07-26T09:09:31.590Z,20.75
2017-07-26T09:09:57.057Z,20.7
2017-07-26T09:10:22.517Z,20.74
2017-07-26T09:10:48.004Z,20.74
2017-07-26T09:11:13.480Z,20.72
2017-07-26T09:11:38.952Z,20.78
2017-07-26T09:12:04.406Z,20.8
2017-07-26T09:12:29.878Z,20.78
2017-07-26T09:12:55.354Z,20.84
2017-07-26T09:13:20.849Z,20.81
2017-07-26T09:13:46.337Z,20.78
2017-07-26T09:14:11.809Z,20.95
2017-07-26T09:14:37.253Z,20.85
2017-07-26T09:15:02.816Z,20.97
2017-07-26T09:15:28.297Z,20.93
2017-07-26T09:15:53.780Z,21.14
2017-07-26T09:16:19.254Z,21.09
2017-07-26T09:16:44.723Z,21.09
2017-07-26T09:17:10.172Z,21.17
2017-07-26T09:17:35.635Z,21.15
2017-07-26T09:18:01.167Z,21.14
2017-07-26T09:18:26.647Z,21.18
2017-07-26T09:18:52.109Z,21.17
2017-07-26T09:19:17.560Z,21.15
2017-07-26T09:19:43.042Z,21.2
2017-07-26T09:20:08.511Z,21.14
2017-07-26T09:20:34.001Z,21.09
2017-07-26T09:20:59.498Z,21.09
2017-07-26T09:21:24.970Z,21.05
2017-07-26T09:21:50.439Z,21.07
2017-07-26T09:22:15.904Z,20.96
2017-07-26T09:22:41.418Z,21.03
2017-07-26T09:23:06.887Z,21.09
2017-07-26T09:23:32.358Z,21
2017-07-26T09:23:57.847Z,21.05
2017-07-26T09:24:23.328Z,21.07
2017-07-26T09:24:48.790Z,21.15
2017-07-26T09:25:14.263Z,21.11
2017-07-26T09:25:39.755Z,21.15
2017-07-26T09:26:05.213Z,21.17
2017-07-26T09:26:30.689Z,21.15
2017-07-26T09:26:56.195Z,21.21
2017-07-26T09:27:21.691Z,21.17
2017-07-26T09:27:47.157Z,21.2
2017-07-26T09:28:12.642Z,21.15
2017-07-26T09:28:38.114Z,21.25
2017-07-26T09:29:03.570Z,21.22
2017-07-26T09:29:29.043Z,21.27
2017-07-26T09:30:17.582Z,21.24
2017-07-26T09:30:43.063Z,21.24
2017-07-26T09:31:08.543Z,21.3
2017-07-26T09:31:34.029Z,21.4
2017-07-26T09:31:59.512Z,21.48
2017-07-26T09:32:24.981Z,21.45
2017-07-26T09:32:50.496Z,21.5
2017-07-26T09:33:15.976Z,21.55
2017-07-26T09:33:41.432Z,21.6
2017-07-26T09:34:06.939Z,21.58
2017-07-26T09:34:32.384Z,21.51
2017-07-26T09:34:57.869Z,21.6
2017-07-26T09:35:23.398Z,21.55
2017-07-26T09:35:48.875Z,21.67
2017-07-26T09:36:14.356Z,21.69
2017-07-26T09:36:39.812Z,21.72
2017-07-26T09:37:05.336Z,21.72
2017-07-26T09:37:30.815Z,21.66
2017-07-26T09:37:56.271Z,21.76
2017-07-26T09:38:21.731Z,21.79
2017-07-26T09:38:47.248Z,21.85
2017-07-26T09:39:12.726Z,21.85
2017-07-26T09:39:38.219Z,21.95
2017-07-26T09:40:03.681Z,21.91
2017-07-26T09:40:29.187Z,21.88
2017-07-26T09:40:54.642Z,21.85
2017-07-26T09:41:20.139Z,21.77
2017-07-26T09:41:45.606Z,21.76
2017-07-26T09:42:11.064Z,21.79
2017-07-26T09:42:36.548Z,21.7
2017-07-26T09:43:02.058Z,21.64
2017-07-26T09:43:27.546Z,21.67
2017-07-26T09:43:53.003Z,21.58
2017-07-26T09:44:18.495Z,21.52
2017-07-26T09:44:43.995Z,21.51
2017-07-26T09:45:09.450Z,21.51
2017-07-26T09:45:34.961Z,21.46
2017-07-26T09:46:00.433Z,21.4
2017-07-26T09:46:25.905Z,21.39
2017-07-26T09:46:51.396Z,21.36
2017-07-26T09:47:16.893Z,21.43
2017-07-26T09:47:42.352Z,21.36
2017-07-26T09:48:07.853Z,21.39
2017-07-26T09:48:33.305Z,21.37
2017-07-26T09:48:58.790Z,21.33
2017-07-26T09:49:24.243Z,21.33
2017-07-26T09:49:49.745Z,21.45
2017-07-26T09:50:15.271Z,21.42
2017-07-26T09:50:40.687Z,21.45
2017-07-26T09:51:06.177Z,21.39
2017-07-26T09:51:31.655Z,21.37
2017-07-26T09:51:57.154Z,21.48
2017-07-26T09:52:22.641Z,21.51
2017-07-26T09:52:48.146Z,21.45
2017-07-26T09:53:13.610Z,21.5
2017-07-26T09:53:39.072Z,21.51
2017-07-26T09:54:04.545Z,21.55
2017-07-26T09:54:30.011Z,21.6
2017-07-26T09:54:55.512Z,21.58
2017-07-26T09:55:20.974Z,21.66
2017-07-26T09:55:46.458Z,21.75
2017-07-26T09:56:11.922Z,21.7
2017-07-26T09:56:37.398Z,21.7
2017-07-26T09:57:02.869Z,21.67
2017-07-26T09:57:28.349Z,21.75
2017-07-26T09:57:53.847Z,21.75
2017-07-26T09:58:19.310Z,21.66
2017-07-26T09:58:44.814Z,21.75
2017-07-26T09:59:10.316Z,21.7
2017-07-26T09:59:35.805Z,21.67
2017-07-26T10:00:01.245Z,21.7
2017-07-26T10:00:26.744Z,21.69
2017-07-26T10:00:52.224Z,21.67
2017-07-26T10:01:17.710Z,21.62
2017-07-26T10:01:43.166Z,21.62
2017-07-26T10:02:08.643Z,21.57
2017-07-26T10:02:34.119Z,21.61
2017-07-26T10:02:59.607Z,21.6
2017-07-26T10:03:25.119Z,21.61
2017-07-26T10:03:50.578Z,21.55
2017-07-26T10:04:16.049Z,21.57
2017-07-26T10:04:41.506Z,21.55
2017-07-26T10:05:07.036Z,21.58
2017-07-26T10:05:32.499Z,21.52
2017-07-26T10:05:57.975Z,21.58
2017-07-26T10:06:23.504Z,21.61
2017-07-26T10:06:48.971Z,21.57
2017-07-26T10:07:14.438Z,21.66
2017-07-26T10:07:39.950Z,21.72
2017-07-26T10:08:05.388Z,21.79
2017-07-26T10:08:30.850Z,21.88
2017-07-26T10:08:56.345Z,21.85
2017-07-26T10:09:21.822Z,21.91
2017-07-26T10:09:47.296Z,21.98
2017-07-26T10:10:12.800Z,21.95
2017-07-26T10:10:38.312Z,21.98
2017-07-26T10:11:03.812Z,22.02
2017-07-26T10:11:29.253Z,21.92
2017-07-26T10:11:54.736Z,21.88
2017-07-26T10:12:20.222Z,21.88
2017-07-26T10:12:45.726Z,21.82
2017-07-26T10:13:11.203Z,21.7
2017-07-26T10:13:36.707Z,21.75
2017-07-26T10:14:02.191Z,21.66
2017-07-26T10:14:27.700Z,21.55
2017-07-26T10:14:53.182Z,21.55
2017-07-26T10:15:18.686Z,21.58
2017-07-26T10:15:44.182Z,21.4
2017-07-26T10:16:09.662Z,21.45
2017-07-26T10:16:35.124Z,21.37
2017-07-26T10:17:00.586Z,21.43
2017-07-26T10:17:26.081Z,21.33
2017-07-26T10:17:51.559Z,21.33
2017-07-26T10:18:17.033Z,21.24
2017-07-26T10:18:42.484Z,21.29
2017-07-26T10:19:07.991Z,21.27
2017-07-26T10:19:33.487Z,21.24
2017-07-26T10:19:58.960Z,21.21
2017-07-26T10:20:24.458Z,21.2
2017-07-26T10:20:49.946Z,21.25
2017-07-26T10:21:15.398Z,21.24
2017-07-26T10:21:40.850Z,21.24
2017-07-26T10:22:34.285Z,21.27
2017-07-26T10:22:59.782Z,21.3
2017-07-26T10:23:25.307Z,21.37
2017-07-26T10:23:50.790Z,21.37
2017-07-26T10:24:16.243Z,21.4
2017-07-26T10:24:41.724Z,21.48
2017-07-26T10:25:07.187Z,21.45
2017-07-26T10:25:32.688Z,21.57
2017-07-26T10:25:58.176Z,21.52
2017-07-26T10:26:23.669Z,21.6
2017-07-26T10:26:49.203Z,21.73
2017-07-26T10:27:14.719Z,21.75
2017-07-26T10:27:40.157Z,21.7
2017-07-26T10:28:05.615Z,21.77
2017-07-26T10:28:31.097Z,21.85
2017-07-26T10:28:56.568Z,21.98
2017-07-26T10:29:22.076Z,21.95
2017-07-26T10:29:47.552Z,21.92
2017-07-26T10:30:13.025Z,22.02
2017-07-26T10:30:38.489Z,21.96
2017-07-26T10:31:03.911Z,22.02
2017-07-26T10:31:29.434Z,21.98
2017-07-26T10:31:54.893Z,22.02
2017-07-26T10:32:20.390Z,22
2017-07-26T10:32:45.875Z,22.02
2017-07-26T10:33:11.356Z,22.04
2017-07-26T10:33:36.843Z,21.95
2017-07-26T10:34:02.336Z,22.08
2017-07-26T10:34:27.799Z,22.02
2017-07-26T10:34:53.271Z,22.06
2017-07-26T10:35:18.758Z,22.04
2017-07-26T10:35:44.256Z,22.02
2017-07-26T10:36:09.700Z,21.93
2017-07-26T10:36:35.179Z,21.93
2017-07-26T10:37:00.670Z,21.99
2017-07-26T10:37:26.136Z,22
2017-07-26T10:37:51.637Z,21.92
2017-07-26T10:38:17.097Z,21.98
2017-07-26T10:38:42.569Z,22
2017-07-26T10:39:08.044Z,21.95
2017-07-26T10:39:33.523Z,21.99
2017-07-26T10:39:59.057Z,21.95
2017-07-26T10:40:24.551Z,21.95
2017-07-26T10:40:50.028Z,21.98
2017-07-26T10:41:15.504Z,22
2017-07-26T10:41:40.969Z,21.93
2017-07-26T10:42:06.466Z,21.98
2017-07-26T10:42:31.959Z,21.96
2017-07-26T10:42:57.438Z,21.93
2017-07-26T10:43:22.911Z,21.93
2017-07-26T10:43:48.370Z,21.99
2017-07-26T10:44:13.834Z,21.95
2017-07-26T10:44:39.323Z,21.83
2017-07-26T10:45:04.823Z,21.77
2017-07-26T10:45:30.303Z,21.82
2017-07-26T10:45:55.807Z,21.83
2017-07-26T10:46:21.270Z,21.83
2017-07-26T10:46:46.769Z,21.82
2017-07-26T10:47:12.232Z,21.77
2017-07-26T10:47:37.687Z,21.76
2017-07-26T10:48:03.159Z,21.79
2017-07-26T10:48:28.642Z,21.79
2017-07-26T10:48:54.106Z,21.73
2017-07-26T10:49:19.574Z,21.66
2017-07-26T10:49:45.067Z,21.67
2017-07-26T10:50:10.562Z,21.72
2017-07-26T10:50:36.070Z,21.73
2017-07-26T10:51:01.553Z,21.64
2017-07-26T10:51:27.019Z,21.66
2017-07-26T10:51:52.499Z,21.58
2017-07-26T10:52:17.983Z,21.54
2017-07-26T10:52:43.476Z,21.45
2017-07-26T10:53:08.938Z,21.45
2017-07-26T10:53:34.414Z,21.43
2017-07-26T10:53:59.891Z,21.5
2017-07-26T10:54:25.343Z,21.4
2017-07-26T10:54:50.845Z,21.29
2017-07-26T10:55:16.317Z,21.24
2017-07-26T10:55:41.796Z,21.24
2017-07-26T10:56:07.278Z,21.24
2017-07-26T10:56:32.766Z,21.29
2017-07-26T10:56:58.229Z,21.27
2017-07-26T10:57:23.716Z,21.24
2017-07-26T10:57:49.200Z,21.32
2017-07-26T10:58:14.709Z,21.4
2017-07-26T10:58:40.219Z,21.35
2017-07-26T10:59:05.719Z,21.48
2017-07-26T10:59:31.192Z,21.48
2017-07-26T10:59:56.673Z,21.51
2017-07-26T11:00:22.144Z,21.52
2017-07-26T11:00:47.615Z,21.5
2017-07-26T11:01:13.118Z,21.6
2017-07-26T11:01:38.584Z,21.72
2017-07-26T11:02:04.076Z,21.67
2017-07-26T11:02:29.572Z,21.67
2017-07-26T11:02:55.055Z,21.73
2017-07-26T11:03:20.523Z,21.76
2017-07-26T11:03:45.979Z,21.69
2017-07-26T11:04:11.462Z,21.8
2017-07-26T11:04:36.944Z,21.8
2017-07-26T11:05:02.412Z,21.92